Asbury, Illinois
Current Conditions -  °F | °C
As of 5:35 AM on Friday 31 Oct 2014 (Local Time) from KCUL Reporting Station
Overcast Overcast  
Wind Chill: 47°   Ceiling: 4000
Heat Index: 49°   Visibility: 7mi
Dew Point: 48°   Wind: 6mph
Humidity: 97%   Direction: 340°NNW
Pressure: 30.04"   Gusts: NA
Location:  37.8866°N, 88.266°W
Report Text: KCUL 311035Z AUTO 34005KT 7SM SCT030 BKN040 OVC046 10/09 A3004 RMK AO2 T00950090
Loading
Personal Weather Stations






























Interactive Weather Map
Tropical Storm Tracking
New forecast layout! Learn more

10-Day Weather Forecast

Advertisements
Track Severe Weather on mobile